createdAt,value
2022-11-05T00:01:53.931Z,100607.00
2022-11-05T00:04:38.791Z,100602.00
2022-11-05T00:07:36.321Z,100614.00
2022-11-05T00:10:26.408Z,100609.00
2022-11-05T00:13:12.612Z,100611.00
2022-11-05T00:15:58.282Z,100619.00
2022-11-05T00:18:24.730Z,100613.00
2022-11-05T00:20:51.209Z,100622.00
2022-11-05T00:23:36.187Z,100630.00
2022-11-05T00:26:05.260Z,100627.00
2022-11-05T00:28:32.379Z,100631.00
2022-11-05T00:31:04.173Z,100637.00
2022-11-05T00:33:31.226Z,100637.00
2022-11-05T00:35:57.707Z,100638.00
2022-11-05T00:38:24.648Z,100642.00
2022-11-05T00:40:51.062Z,100641.00
2022-11-05T00:43:36.300Z,100641.00
2022-11-05T00:46:02.745Z,100646.00
2022-11-05T00:48:47.765Z,100649.00
2022-11-05T00:51:14.401Z,100645.00
2022-11-05T00:53:40.910Z,100647.00
2022-11-05T00:56:07.409Z,100647.00
2022-11-05T00:58:33.882Z,100655.00
2022-11-05T01:01:01.225Z,100654.00
2022-11-05T01:03:33.978Z,100655.00
2022-11-05T01:06:20.640Z,100656.00
2022-11-05T01:08:47.196Z,100660.00
2022-11-05T01:11:34.412Z,100667.00
2022-11-05T01:14:04.171Z,100662.00
2022-11-05T01:16:30.977Z,100667.00
2022-11-05T01:18:57.457Z,100669.00
2022-11-05T01:21:23.911Z,100673.00
2022-11-05T01:23:50.339Z,100677.00
2022-11-05T01:26:17.795Z,100671.00
2022-11-05T01:28:44.299Z,100675.00
2022-11-05T01:31:10.757Z,100671.00
2022-11-05T01:33:37.191Z,100679.00
2022-11-05T01:36:05.048Z,100680.00
2022-11-05T01:38:31.528Z,100677.00
2022-11-05T01:40:57.953Z,100681.00
2022-11-05T01:43:24.363Z,100681.00
2022-11-05T01:45:58.542Z,100684.00
2022-11-05T01:48:35.163Z,100689.00
2022-11-05T01:51:06.915Z,100681.00
2022-11-05T01:53:44.445Z,100688.00
2022-11-05T01:56:12.384Z,100702.00
2022-11-05T01:58:51.137Z,100703.00
2022-11-05T02:01:18.156Z,100690.00
2022-11-05T02:03:45.993Z,100701.00
2022-11-05T02:06:14.831Z,100707.00
2022-11-05T02:09:03.195Z,100714.00
2022-11-05T02:11:29.845Z,100716.00
2022-11-05T02:13:56.339Z,100725.00
2022-11-05T02:16:32.286Z,100716.00
2022-11-05T02:19:25.711Z,100727.00
2022-11-05T02:22:15.656Z,100721.00
2022-11-05T02:25:22.016Z,100718.00
2022-11-05T02:28:35.087Z,100718.00
2022-11-05T02:31:12.275Z,100728.00
2022-11-05T02:34:07.918Z,100737.00
2022-11-05T02:36:41.916Z,100738.00
2022-11-05T02:39:26.676Z,100736.00
2022-11-05T02:42:32.182Z,100736.00
2022-11-05T02:45:25.613Z,100734.00
2022-11-05T02:47:59.871Z,100744.00
2022-11-05T02:50:39.640Z,100742.00
2022-11-05T02:53:16.633Z,100742.00
2022-11-05T02:55:59.421Z,100749.00
2022-11-05T02:58:29.534Z,100749.00
2022-11-05T03:00:57.851Z,100751.00
2022-11-05T03:03:28.979Z,100745.00
2022-11-05T03:06:19.041Z,100761.00
2022-11-05T03:09:03.525Z,100757.00
2022-11-05T03:11:33.646Z,100766.00
2022-11-05T03:14:17.078Z,100764.00
2022-11-05T03:17:07.426Z,100766.00
2022-11-05T03:19:49.123Z,100772.00
2022-11-05T03:22:23.119Z,100774.00
2022-11-05T03:24:54.316Z,100775.00
2022-11-05T03:27:26.388Z,100778.00
2022-11-05T03:30:13.972Z,100785.00
2022-11-05T03:32:48.854Z,100783.00
2022-11-05T03:35:20.588Z,100788.00
2022-11-05T03:37:48.967Z,100794.00
2022-11-05T03:40:18.312Z,100793.00
2022-11-05T03:42:49.260Z,100802.00
2022-11-05T03:45:21.719Z,100799.00
2022-11-05T03:47:51.753Z,100806.00
2022-11-05T03:50:25.152Z,100812.00
2022-11-05T03:52:54.248Z,100804.00
2022-11-05T03:55:29.283Z,100814.00
2022-11-05T03:57:57.584Z,100825.00
2022-11-05T04:00:24.181Z,100817.00
2022-11-05T04:02:50.757Z,100829.00
2022-11-05T04:05:17.399Z,100816.00
2022-11-05T04:08:03.484Z,100820.00
2022-11-05T04:11:04.997Z,100833.00
2022-11-05T04:13:32.205Z,100828.00
2022-11-05T04:16:17.329Z,100835.00
2022-11-05T04:18:43.830Z,100832.00
2022-11-05T04:21:29.428Z,100832.00
2022-11-05T04:24:08.210Z,100846.00
2022-11-05T04:26:41.297Z,100847.00
2022-11-05T04:29:26.858Z,100850.00
2022-11-05T04:31:53.539Z,100860.00
2022-11-05T04:34:22.053Z,100864.00
2022-11-05T04:36:50.289Z,100869.00
2022-11-05T04:39:18.013Z,100855.00
2022-11-05T04:41:45.409Z,100867.00
2022-11-05T04:44:11.993Z,100861.00
2022-11-05T04:46:38.430Z,100868.00
2022-11-05T04:49:04.933Z,100864.00
2022-11-05T04:51:31.352Z,100877.00
2022-11-05T04:53:57.777Z,100866.00
2022-11-05T04:56:25.461Z,100875.00
2022-11-05T04:58:52.230Z,100877.00
2022-11-05T05:01:21.500Z,100879.00
2022-11-05T05:03:49.699Z,100878.00
2022-11-05T05:06:17.287Z,100882.00
2022-11-05T05:08:43.860Z,100875.00
2022-11-05T05:11:14.961Z,100879.00
2022-11-05T05:13:41.546Z,100874.00
2022-11-05T05:16:18.242Z,100871.00
2022-11-05T05:18:46.453Z,100882.00
2022-11-05T05:21:32.268Z,100886.00
2022-11-05T05:23:58.726Z,100887.00
2022-11-05T05:26:25.151Z,100888.00
2022-11-05T05:28:52.850Z,100894.00
2022-11-05T05:31:19.811Z,100889.00
2022-11-05T05:33:46.652Z,100887.00
2022-11-05T05:36:13.228Z,100892.00
2022-11-05T05:38:40.153Z,100897.00
2022-11-05T05:41:06.561Z,100898.00
2022-11-05T05:43:33.891Z,100892.00
2022-11-05T05:46:09.836Z,100916.00
2022-11-05T05:48:36.315Z,100908.00
2022-11-05T05:51:07.862Z,100918.00
2022-11-05T05:53:34.554Z,100919.00
2022-11-05T05:56:01.319Z,100919.00
2022-11-05T05:58:37.296Z,100921.00
2022-11-05T06:01:07.165Z,100930.00
2022-11-05T06:03:34.526Z,100932.00
2022-11-05T06:06:06.106Z,100932.00
2022-11-05T06:08:32.898Z,100946.00
2022-11-05T06:11:00.121Z,100944.00
2022-11-05T06:13:26.759Z,100950.00
2022-11-05T06:15:53.442Z,100947.00
2022-11-05T06:18:19.901Z,100968.00
2022-11-05T06:20:46.315Z,100970.00
2022-11-05T06:23:12.955Z,100960.00
2022-11-05T06:25:41.433Z,100964.00
2022-11-05T06:28:08.049Z,100981.00
2022-11-05T06:30:34.504Z,100983.00
2022-11-05T06:33:05.309Z,100991.00
2022-11-05T06:35:31.989Z,100986.00
2022-11-05T06:38:02.132Z,100993.00
2022-11-05T06:40:28.845Z,100999.00
2022-11-05T06:42:55.431Z,100994.00
2022-11-05T06:45:21.979Z,100995.00
2022-11-05T06:47:48.389Z,101004.00
2022-11-05T06:50:14.785Z,101002.00
2022-11-05T06:52:41.498Z,101002.00
2022-11-05T06:55:08.312Z,101003.00
2022-11-05T06:57:37.513Z,101007.00
2022-11-05T07:00:07.844Z,101016.00
2022-11-05T07:02:34.639Z,101010.00
2022-11-05T07:05:01.094Z,101022.00
2022-11-05T07:07:27.520Z,101023.00
2022-11-05T07:09:54.154Z,101028.00
2022-11-05T07:12:20.657Z,101027.00
2022-11-05T07:14:47.090Z,101037.00
2022-11-05T07:17:16.652Z,101040.00
2022-11-05T07:19:43.139Z,101050.00
2022-11-05T07:22:09.574Z,101049.00
2022-11-05T07:24:36.018Z,101046.00
2022-11-05T07:27:02.458Z,101048.00
2022-11-05T07:29:28.995Z,101054.00
2022-11-05T07:31:55.429Z,101059.00
2022-11-05T07:34:21.881Z,101055.00
2022-11-05T07:36:48.537Z,101062.00
2022-11-05T07:39:15.095Z,101054.00
2022-11-05T07:41:41.603Z,101067.00
2022-11-05T07:44:08.112Z,101060.00
2022-11-05T07:46:34.533Z,101066.00
2022-11-05T07:49:01.018Z,101076.00
2022-11-05T07:51:27.505Z,101064.00
2022-11-05T07:53:53.940Z,101062.00
2022-11-05T07:56:20.380Z,101066.00
2022-11-05T07:58:46.883Z,101063.00
2022-11-05T08:01:13.436Z,101058.00
2022-11-05T08:03:40.024Z,101062.00
2022-11-05T08:06:06.476Z,101066.00
2022-11-05T08:08:32.880Z,101071.00
2022-11-05T08:11:06.666Z,101075.00
2022-11-05T08:13:34.251Z,101090.00
2022-11-05T08:16:02.008Z,101082.00
2022-11-05T08:18:32.816Z,101090.00
2022-11-05T08:21:01.406Z,101092.00
2022-11-05T08:23:29.201Z,101095.00
2022-11-05T08:25:56.970Z,101092.00
2022-11-05T08:28:24.652Z,101089.00
2022-11-05T08:30:55.764Z,101091.00
2022-11-05T08:33:24.118Z,101093.00
2022-11-05T08:35:50.801Z,101101.00
2022-11-05T08:38:19.347Z,101108.00
2022-11-05T08:40:57.671Z,101100.00
2022-11-05T08:43:24.558Z,101111.00
2022-11-05T08:45:51.067Z,101123.00
2022-11-05T08:48:18.740Z,101117.00
2022-11-05T08:50:47.120Z,101127.00
2022-11-05T08:53:14.397Z,101126.00
2022-11-05T08:55:41.512Z,101123.00
2022-11-05T08:58:12.381Z,101126.00
2022-11-05T09:00:39.331Z,101130.00
2022-11-05T09:03:07.917Z,101120.00
2022-11-05T09:05:38.037Z,101129.00
2022-11-05T09:08:09.337Z,101137.00
2022-11-05T09:10:36.649Z,101134.00
2022-11-05T09:13:04.457Z,101140.00
2022-11-05T09:15:31.649Z,101145.00
2022-11-05T09:17:58.180Z,101151.00
2022-11-05T09:20:24.704Z,101153.00
2022-11-05T09:22:51.604Z,101146.00
2022-11-05T09:25:18.080Z,101154.00
2022-11-05T09:27:44.861Z,101165.00
2022-11-05T09:30:12.854Z,101153.00
2022-11-05T09:32:39.541Z,101164.00
2022-11-05T09:35:06.602Z,101164.00
2022-11-05T09:37:33.065Z,101173.00
2022-11-05T09:39:59.461Z,101175.00
2022-11-05T09:42:31.464Z,101170.00
2022-11-05T09:45:08.206Z,101179.00
2022-11-05T09:47:44.424Z,101183.00
2022-11-05T09:50:28.626Z,101187.00
2022-11-05T09:52:55.152Z,101184.00
2022-11-05T09:55:37.312Z,101178.00
2022-11-05T09:58:13.211Z,101182.00
2022-11-05T10:00:40.281Z,101198.00
2022-11-05T10:03:11.903Z,101195.00
2022-11-05T10:05:40.208Z,101188.00
2022-11-05T10:08:18.072Z,101188.00
2022-11-05T10:10:44.342Z,101192.00
2022-11-05T10:13:26.863Z,101195.00
2022-11-05T10:15:53.501Z,101186.00
2022-11-05T10:18:27.954Z,101187.00
2022-11-05T10:20:54.788Z,101193.00
2022-11-05T10:23:22.312Z,101193.00
2022-11-05T10:25:54.790Z,101195.00
2022-11-05T10:28:24.045Z,101192.00
2022-11-05T10:30:58.744Z,101188.00
2022-11-05T10:33:33.375Z,101178.00
2022-11-05T10:36:04.752Z,101188.00
2022-11-05T10:38:31.960Z,101180.00
2022-11-05T10:41:28.867Z,101186.00
2022-11-05T10:44:09.155Z,101190.00
2022-11-05T10:46:50.420Z,101191.00
2022-11-05T10:49:43.224Z,101191.00
2022-11-05T10:52:46.733Z,101205.00
2022-11-05T10:55:19.203Z,101207.00
2022-11-05T10:57:47.701Z,101199.00
2022-11-05T11:00:15.131Z,101206.00
2022-11-05T11:02:57.559Z,101204.00
2022-11-05T11:05:28.368Z,101208.00
2022-11-05T11:08:01.931Z,101220.00
2022-11-05T11:10:32.050Z,101215.00
2022-11-05T11:12:58.723Z,101217.00
2022-11-05T11:15:32.678Z,101224.00
2022-11-05T11:18:17.438Z,101217.00
2022-11-05T11:20:45.545Z,101218.00
2022-11-05T11:23:16.259Z,101213.00
2022-11-05T11:25:52.058Z,101209.00
2022-11-05T11:28:37.300Z,101219.00
2022-11-05T11:31:08.659Z,101222.00
2022-11-05T11:33:37.013Z,101222.00
2022-11-05T11:36:04.537Z,101225.00
2022-11-05T11:38:33.494Z,101228.00
2022-11-05T11:41:03.625Z,101220.00
2022-11-05T11:43:34.479Z,101226.00
2022-11-05T11:46:07.806Z,101235.00
2022-11-05T11:48:36.408Z,101225.00
2022-11-05T11:51:29.241Z,101235.00
2022-11-05T11:54:00.862Z,101235.00
2022-11-05T11:56:27.719Z,101236.00
2022-11-05T11:58:55.786Z,101241.00
2022-11-05T12:01:42.158Z,101238.00
2022-11-05T12:04:37.934Z,101230.00
2022-11-05T12:07:14.977Z,101242.00
2022-11-05T12:10:00.125Z,101265.00
2022-11-05T12:12:51.930Z,101249.00
2022-11-05T12:15:25.308Z,101256.00
2022-11-05T12:17:59.545Z,101242.00
2022-11-05T12:20:41.013Z,101243.00
2022-11-05T12:23:45.595Z,101240.00
2022-11-05T12:26:47.338Z,101250.00
2022-11-05T12:29:35.938Z,101239.00
2022-11-05T12:32:17.548Z,101235.00
2022-11-05T12:35:44.155Z,101239.00
2022-11-05T12:38:33.478Z,101251.00
2022-11-05T12:41:27.211Z,101250.00
2022-11-05T12:44:12.275Z,101264.00
2022-11-05T12:46:44.433Z,101243.00
2022-11-05T12:49:31.111Z,101257.00
2022-11-05T12:52:10.506Z,101253.00
2022-11-05T12:54:56.695Z,101256.00
2022-11-05T12:57:23.341Z,101267.00
2022-11-05T13:00:06.107Z,101264.00
2022-11-05T13:02:50.032Z,101258.00
2022-11-05T13:05:22.513Z,101256.00
2022-11-05T13:08:05.372Z,101247.00
2022-11-05T13:10:40.894Z,101260.00
2022-11-05T13:13:18.608Z,101267.00
2022-11-05T13:15:52.977Z,101260.00
2022-11-05T13:18:28.939Z,101264.00
2022-11-05T13:20:57.482Z,101268.00
2022-11-05T13:23:35.139Z,101263.00
2022-11-05T13:26:33.187Z,101265.00
2022-11-05T13:29:06.649Z,101258.00
2022-11-05T13:31:38.803Z,101264.00
2022-11-05T13:34:11.021Z,101257.00
2022-11-05T13:37:17.301Z,101264.00
2022-11-05T13:39:52.988Z,101268.00
2022-11-05T13:43:11.153Z,101256.00
2022-11-05T13:46:02.824Z,101264.00
2022-11-05T13:48:59.358Z,101268.00
2022-11-05T13:51:50.012Z,101268.00
2022-11-05T13:54:46.192Z,101281.00
2022-11-05T13:58:09.464Z,101283.00
2022-11-05T14:01:01.555Z,101273.00
2022-11-05T14:03:28.633Z,101281.00
2022-11-05T14:06:03.372Z,101279.00
2022-11-05T14:08:33.472Z,101278.00
2022-11-05T14:11:03.899Z,101282.00
2022-11-05T14:13:42.333Z,101280.00
2022-11-05T14:16:17.983Z,101285.00
2022-11-05T14:19:22.968Z,101298.00
2022-11-05T14:21:54.395Z,101299.00
2022-11-05T14:24:24.034Z,101303.00
2022-11-05T14:27:02.696Z,101296.00
2022-11-05T14:29:42.042Z,101300.00
2022-11-05T14:32:17.586Z,101302.00
2022-11-05T14:34:54.613Z,101300.00
2022-11-05T14:37:29.789Z,101303.00
2022-11-05T14:40:00.327Z,101304.00
2022-11-05T14:42:29.547Z,101304.00
2022-11-05T14:45:07.795Z,101312.00
2022-11-05T14:47:37.365Z,101313.00
2022-11-05T14:50:03.715Z,101307.00
2022-11-05T14:52:31.350Z,101309.00
2022-11-05T14:54:58.643Z,101320.00
2022-11-05T14:57:54.365Z,101316.00
2022-11-05T15:00:29.606Z,101319.00
2022-11-05T15:03:04.093Z,101317.00
2022-11-05T15:05:52.065Z,101313.00
2022-11-05T15:08:32.235Z,101317.00
2022-11-05T15:11:38.792Z,101314.00
2022-11-05T15:14:16.296Z,101315.00
2022-11-05T15:16:44.769Z,101319.00
2022-11-05T15:19:30.757Z,101329.00
2022-11-05T15:21:59.391Z,101329.00
2022-11-05T15:24:28.199Z,101326.00
2022-11-05T15:26:58.274Z,101333.00
2022-11-05T15:29:28.037Z,101339.00
2022-11-05T15:31:54.549Z,101331.00
2022-11-05T15:34:30.865Z,101340.00
2022-11-05T15:37:03.219Z,101339.00
2022-11-05T15:39:40.487Z,101337.00
2022-11-05T15:42:15.963Z,101345.00
2022-11-05T15:44:44.729Z,101349.00
2022-11-05T15:47:20.617Z,101349.00
2022-11-05T15:49:54.006Z,101348.00
2022-11-05T15:52:23.311Z,101351.00
2022-11-05T15:55:11.522Z,101352.00
2022-11-05T15:57:40.472Z,101357.00
2022-11-05T16:00:15.648Z,101351.00
2022-11-05T16:02:42.451Z,101358.00
2022-11-05T16:05:14.033Z,101357.00
2022-11-05T16:07:45.168Z,101352.00
2022-11-05T16:10:29.014Z,101352.00
2022-11-05T16:12:55.514Z,101359.00
2022-11-05T16:15:25.052Z,101357.00
2022-11-05T16:17:58.871Z,101349.00
2022-11-05T16:20:34.234Z,101343.00
2022-11-05T16:23:03.224Z,101350.00
2022-11-05T16:25:39.223Z,101349.00
2022-11-05T16:28:19.609Z,101344.00
2022-11-05T16:30:59.662Z,101352.00
2022-11-05T16:33:31.216Z,101361.00
2022-11-05T16:35:58.217Z,101355.00
2022-11-05T16:38:24.709Z,101361.00
2022-11-05T16:40:51.175Z,101352.00
2022-11-05T16:43:21.613Z,101364.00
2022-11-05T16:45:48.574Z,101355.00
2022-11-05T16:48:16.300Z,101364.00
2022-11-05T16:50:45.023Z,101363.00
2022-11-05T16:53:12.624Z,101372.00
2022-11-05T16:55:41.364Z,101371.00
2022-11-05T16:58:20.512Z,101382.00
2022-11-05T17:00:50.717Z,101380.00
2022-11-05T17:03:21.020Z,101389.00
2022-11-05T17:05:48.699Z,101397.00
2022-11-05T17:08:16.124Z,101391.00
2022-11-05T17:10:42.910Z,101409.00
2022-11-05T17:13:14.254Z,101413.00
2022-11-05T17:15:43.398Z,101412.00
2022-11-05T17:18:16.905Z,101416.00
2022-11-05T17:20:48.007Z,101419.00
2022-11-05T17:23:17.715Z,101426.00
2022-11-05T17:25:47.198Z,101408.00
2022-11-05T17:28:17.142Z,101417.00
2022-11-05T17:30:49.274Z,101414.00
2022-11-05T17:33:19.293Z,101420.00
2022-11-05T17:35:45.934Z,101418.00
2022-11-05T17:38:12.696Z,101418.00
2022-11-05T17:40:40.202Z,101422.00
2022-11-05T17:43:07.460Z,101430.00
2022-11-05T17:45:33.978Z,101435.00
2022-11-05T17:48:03.467Z,101429.00
2022-11-05T17:50:30.192Z,101434.00
2022-11-05T17:52:56.787Z,101434.00
2022-11-05T17:55:23.625Z,101440.00
2022-11-05T17:57:51.506Z,101442.00
2022-11-05T18:00:23.260Z,101442.00
2022-11-05T18:02:52.440Z,101439.00
2022-11-05T18:05:20.601Z,101442.00
2022-11-05T18:07:47.843Z,101451.00
2022-11-05T18:10:17.223Z,101448.00
2022-11-05T18:12:45.213Z,101445.00
2022-11-05T18:15:12.633Z,101437.00
2022-11-05T18:17:39.182Z,101439.00
2022-11-05T18:20:10.714Z,101438.00
2022-11-05T18:22:42.437Z,101434.00
2022-11-05T18:25:11.289Z,101428.00
2022-11-05T18:27:37.953Z,101434.00
2022-11-05T18:30:05.039Z,101437.00
2022-11-05T18:32:31.445Z,101433.00
2022-11-05T18:34:57.848Z,101426.00
2022-11-05T18:37:24.642Z,101440.00
2022-11-05T18:39:53.423Z,101434.00
2022-11-05T18:42:21.214Z,101436.00
2022-11-05T18:44:48.211Z,101419.00
2022-11-05T18:47:14.618Z,101426.00
2022-11-05T18:49:41.067Z,101437.00
2022-11-05T18:52:07.523Z,101430.00
2022-11-05T18:54:34.064Z,101432.00
2022-11-05T18:57:00.511Z,101433.00
2022-11-05T18:59:42.472Z,101429.00
2022-11-05T19:02:11.400Z,101427.00
2022-11-05T19:04:38.570Z,101433.00
2022-11-05T19:07:06.362Z,101439.00
2022-11-05T19:09:37.314Z,101430.00
2022-11-05T19:12:05.058Z,101445.00
2022-11-05T19:14:31.944Z,101431.00
2022-11-05T19:16:58.855Z,101431.00
2022-11-05T19:19:25.394Z,101447.00
2022-11-05T19:21:52.460Z,101442.00
2022-11-05T19:24:19.113Z,101446.00
2022-11-05T19:26:46.708Z,101439.00
2022-11-05T19:29:13.195Z,101442.00
2022-11-05T19:31:39.652Z,101438.00
2022-11-05T19:34:06.101Z,101438.00
2022-11-05T19:36:34.263Z,101434.00
2022-11-05T19:39:04.175Z,101449.00
2022-11-05T19:41:31.252Z,101441.00
2022-11-05T19:43:59.472Z,101438.00
2022-11-05T19:46:27.088Z,101442.00
2022-11-05T19:48:54.040Z,101442.00
2022-11-05T19:51:25.446Z,101438.00
2022-11-05T19:53:54.086Z,101430.00
2022-11-05T19:56:26.210Z,101438.00
2022-11-05T19:58:53.645Z,101431.00
2022-11-05T20:01:22.492Z,101440.00
2022-11-05T20:03:50.455Z,101443.00
2022-11-05T20:06:21.105Z,101446.00
2022-11-05T20:09:23.624Z,101451.00
2022-11-05T20:11:53.383Z,101437.00
2022-11-05T20:14:20.365Z,101453.00
2022-11-05T20:16:55.434Z,101433.00
2022-11-05T20:19:23.411Z,101447.00
2022-11-05T20:21:50.153Z,101460.00
2022-11-05T20:24:24.931Z,101445.00
2022-11-05T20:26:56.927Z,101463.00
2022-11-05T20:29:27.852Z,101462.00
2022-11-05T20:31:57.928Z,101464.00
2022-11-05T20:34:24.541Z,101465.00
2022-11-05T20:36:52.396Z,101472.00
2022-11-05T20:39:21.190Z,101480.00
2022-11-05T20:41:50.690Z,101474.00
2022-11-05T20:44:19.276Z,101461.00
2022-11-05T20:46:45.912Z,101469.00
2022-11-05T20:49:12.428Z,101462.00
2022-11-05T20:51:39.066Z,101452.00
2022-11-05T20:54:05.769Z,101460.00
2022-11-05T20:56:37.120Z,101463.00
2022-11-05T20:59:08.343Z,101459.00
2022-11-05T21:01:42.945Z,101470.00
2022-11-05T21:04:09.716Z,101464.00
2022-11-05T21:06:36.613Z,101470.00
2022-11-05T21:09:04.238Z,101466.00
2022-11-05T21:11:50.793Z,101466.00
2022-11-05T21:14:17.612Z,101488.00
2022-11-05T21:16:44.167Z,101487.00
2022-11-05T21:19:10.758Z,101477.00
2022-11-05T21:21:41.041Z,101477.00
2022-11-05T21:24:08.094Z,101484.00
2022-11-05T21:26:34.710Z,101475.00
2022-11-05T21:29:01.152Z,101483.00
2022-11-05T21:31:27.648Z,101472.00
2022-11-05T21:33:55.274Z,101469.00
2022-11-05T21:36:21.975Z,101470.00
2022-11-05T21:38:48.519Z,101467.00
2022-11-05T21:41:14.983Z,101470.00
2022-11-05T21:43:42.328Z,101466.00
2022-11-05T21:46:11.962Z,101463.00
2022-11-05T21:48:45.143Z,101457.00
2022-11-05T21:51:30.136Z,101456.00
2022-11-05T21:54:15.070Z,101464.00
2022-11-05T21:57:01.103Z,101470.00
2022-11-05T21:59:46.099Z,101472.00
2022-11-05T22:02:14.664Z,101469.00
2022-11-05T22:04:43.902Z,101475.00
2022-11-05T22:07:18.253Z,101465.00
2022-11-05T22:09:44.866Z,101478.00
2022-11-05T22:12:11.613Z,101462.00
2022-11-05T22:14:38.553Z,101462.00
2022-11-05T22:17:05.517Z,101465.00
2022-11-05T22:19:32.314Z,101466.00
2022-11-05T22:21:58.810Z,101467.00
2022-11-05T22:24:25.754Z,101475.00
2022-11-05T22:26:52.229Z,101469.00
2022-11-05T22:29:20.901Z,101463.00
2022-11-05T22:31:47.516Z,101460.00
2022-11-05T22:34:14.052Z,101446.00
2022-11-05T22:36:40.605Z,101450.00
2022-11-05T22:39:07.347Z,101453.00
2022-11-05T22:41:34.392Z,101453.00
2022-11-05T22:44:03.596Z,101458.00
2022-11-05T22:46:33.862Z,101450.00
2022-11-05T22:49:00.453Z,101453.00
2022-11-05T22:51:30.818Z,101462.00
2022-11-05T22:53:58.081Z,101462.00
2022-11-05T22:56:27.348Z,101460.00
2022-11-05T22:58:54.238Z,101466.00
2022-11-05T23:01:23.434Z,101458.00
2022-11-05T23:03:52.130Z,101460.00
2022-11-05T23:06:42.578Z,101460.00
2022-11-05T23:09:37.248Z,101465.00
2022-11-05T23:12:06.975Z,101458.00
2022-11-05T23:14:35.142Z,101461.00
2022-11-05T23:17:20.231Z,101461.00
2022-11-05T23:20:05.050Z,101455.00
2022-11-05T23:22:50.992Z,101473.00
2022-11-05T23:25:21.542Z,101462.00
2022-11-05T23:27:50.261Z,101473.00
2022-11-05T23:30:25.626Z,101466.00
2022-11-05T23:32:53.166Z,101453.00
2022-11-05T23:35:39.940Z,101454.00
2022-11-05T23:38:24.833Z,101443.00
2022-11-05T23:41:09.978Z,101444.00
2022-11-05T23:43:55.697Z,101458.00
2022-11-05T23:46:40.499Z,101459.00
2022-11-05T23:49:06.974Z,101448.00
2022-11-05T23:51:33.434Z,101443.00
2022-11-05T23:53:59.938Z,101437.00
2022-11-05T23:56:26.415Z,101443.00
2022-11-05T23:58:52.851Z,101450.00
